createdAt,value
2023-02-02T00:00:36.057Z,3.20
2023-02-02T00:02:00.901Z,3.19
2023-02-02T00:03:03.946Z,3.19
2023-02-02T00:04:06.908Z,3.19
2023-02-02T00:05:10.013Z,3.19
2023-02-02T00:06:13.168Z,3.19
2023-02-02T00:07:16.056Z,3.19
2023-02-02T00:08:20.593Z,3.18
2023-02-02T00:09:24.283Z,3.18
2023-02-02T00:10:27.104Z,3.18
2023-02-02T00:11:29.999Z,3.18
2023-02-02T00:12:33.109Z,3.18
2023-02-02T00:13:36.108Z,3.17
2023-02-02T00:14:38.956Z,3.18
2023-02-02T00:15:41.807Z,3.18
2023-02-02T00:16:53.001Z,3.17
2023-02-02T00:17:55.911Z,3.17
2023-02-02T00:19:20.299Z,3.16
2023-02-02T00:20:24.160Z,3.13
2023-02-02T00:21:28.312Z,3.16
2023-02-02T00:22:31.952Z,3.17
2023-02-02T00:23:35.287Z,3.16
2023-02-02T00:24:38.476Z,3.17
2023-02-02T00:25:41.345Z,3.17
2023-02-02T00:26:46.203Z,3.18
2023-02-02T00:27:50.039Z,3.18
2023-02-02T00:28:53.574Z,3.17
2023-02-02T00:29:57.761Z,3.18
2023-02-02T00:31:00.670Z,3.18
2023-02-02T00:32:03.549Z,3.18
2023-02-02T00:33:06.456Z,3.18
2023-02-02T00:34:13.985Z,3.18
2023-02-02T00:35:17.080Z,3.19
2023-02-02T00:36:20.916Z,3.19
2023-02-02T00:37:23.793Z,3.19
2023-02-02T00:38:26.691Z,3.20
2023-02-02T00:39:29.781Z,3.19
2023-02-02T00:40:32.691Z,3.19
2023-02-02T00:41:35.859Z,3.19
2023-02-02T00:42:38.680Z,3.19
2023-02-02T00:43:41.614Z,3.19
2023-02-02T00:45:03.292Z,3.20
2023-02-02T00:46:12.599Z,3.19
2023-02-02T00:47:16.926Z,3.20
2023-02-02T00:48:20.097Z,3.20
2023-02-02T00:49:23.368Z,3.20
2023-02-02T00:50:26.707Z,3.21
2023-02-02T00:51:29.629Z,3.21
2023-02-02T00:52:32.525Z,3.21
2023-02-02T00:53:35.609Z,3.21
2023-02-02T00:54:38.509Z,3.21
2023-02-02T00:55:41.396Z,3.21
2023-02-02T00:56:44.600Z,3.21
2023-02-02T00:57:48.268Z,3.21
2023-02-02T00:58:51.136Z,3.22
2023-02-02T00:59:54.034Z,3.21
2023-02-02T01:00:57.016Z,3.21
2023-02-02T01:02:00.022Z,3.20
2023-02-02T01:03:04.673Z,3.19
2023-02-02T01:04:08.342Z,3.17
2023-02-02T01:05:12.486Z,3.16
2023-02-02T01:06:15.676Z,3.13
2023-02-02T01:07:18.559Z,3.10
2023-02-02T01:08:21.482Z,3.07
2023-02-02T01:09:24.314Z,3.05
2023-02-02T01:10:28.173Z,3.03
2023-02-02T01:11:31.119Z,3.01
2023-02-02T01:12:35.053Z,3.00
2023-02-02T01:13:37.999Z,2.99
2023-02-02T01:14:40.829Z,2.98
2023-02-02T01:15:43.693Z,2.98
2023-02-02T01:16:46.940Z,2.97
2023-02-02T01:17:49.872Z,2.96
2023-02-02T01:18:52.983Z,2.94
2023-02-02T01:19:55.924Z,2.93
2023-02-02T01:21:03.495Z,2.92
2023-02-02T01:22:07.688Z,2.91
2023-02-02T01:23:10.650Z,2.89
2023-02-02T01:24:13.635Z,2.89
2023-02-02T01:25:16.746Z,2.87
2023-02-02T01:26:19.827Z,2.87
2023-02-02T01:27:23.283Z,2.87
2023-02-02T01:28:27.377Z,2.87
2023-02-02T01:29:30.594Z,2.86
2023-02-02T01:30:33.474Z,2.86
2023-02-02T01:31:36.483Z,2.86
2023-02-02T01:32:39.357Z,2.86
2023-02-02T01:33:43.924Z,2.86
2023-02-02T01:34:46.887Z,2.87
2023-02-02T01:35:54.211Z,2.87
2023-02-02T01:36:59.154Z,2.87
2023-02-02T01:38:02.022Z,2.87
2023-02-02T01:39:05.477Z,2.87
2023-02-02T01:40:09.200Z,2.87
2023-02-02T01:41:14.779Z,2.86
2023-02-02T01:42:23.076Z,2.86
2023-02-02T01:43:44.344Z,2.85
2023-02-02T01:45:05.660Z,2.86
2023-02-02T01:46:15.124Z,2.85
2023-02-02T01:47:21.125Z,2.86
2023-02-02T01:48:32.791Z,2.86
2023-02-02T01:49:36.551Z,2.86
2023-02-02T01:50:39.728Z,2.87
2023-02-02T01:51:48.835Z,2.87
2023-02-02T01:52:53.962Z,2.87
2023-02-02T01:53:59.706Z,2.87
2023-02-02T01:55:08.660Z,2.88
2023-02-02T01:56:15.762Z,2.88
2023-02-02T01:57:28.295Z,2.89
2023-02-02T01:58:35.862Z,2.90
2023-02-02T01:59:39.315Z,2.91
2023-02-02T02:00:45.097Z,2.91
2023-02-02T02:01:52.480Z,2.92
2023-02-02T02:02:59.698Z,2.93
2023-02-02T02:04:02.769Z,2.93
2023-02-02T02:05:07.962Z,2.94
2023-02-02T02:06:14.788Z,2.96
2023-02-02T02:07:17.893Z,2.96
2023-02-02T02:08:28.964Z,2.97
2023-02-02T02:09:33.702Z,2.97
2023-02-02T02:10:37.115Z,2.98
2023-02-02T02:11:40.503Z,2.98
2023-02-02T02:12:43.551Z,2.99
2023-02-02T02:14:05.783Z,2.98
2023-02-02T02:15:29.247Z,2.99
2023-02-02T02:17:00.100Z,2.98
2023-02-02T02:18:16.843Z,2.97
2023-02-02T02:20:35.614Z,2.97
2023-02-02T02:22:17.547Z,2.96
2023-02-02T02:23:44.435Z,2.94
2023-02-02T02:25:47.518Z,2.92
2023-02-02T02:27:28.350Z,2.90
2023-02-02T02:28:56.725Z,2.89
2023-02-02T02:30:15.546Z,2.88
2023-02-02T02:31:33.579Z,2.87
2023-02-02T02:32:56.883Z,2.88
2023-02-02T02:34:09.891Z,2.88
2023-02-02T02:35:40.062Z,2.88
2023-02-02T02:36:51.577Z,2.88
2023-02-02T02:38:04.655Z,2.88
2023-02-02T02:39:18.853Z,2.89
2023-02-02T02:40:43.127Z,2.89
2023-02-02T02:41:52.489Z,2.91
2023-02-02T02:43:03.562Z,2.91
2023-02-02T02:44:14.445Z,2.91
2023-02-02T02:45:18.875Z,2.93
2023-02-02T02:46:23.141Z,2.94
2023-02-02T02:47:26.335Z,2.95
2023-02-02T02:48:29.766Z,2.97
2023-02-02T02:49:32.747Z,2.97
2023-02-02T02:50:36.144Z,2.99
2023-02-02T02:51:50.011Z,3.00
2023-02-02T02:53:06.405Z,3.01
2023-02-02T02:54:11.713Z,3.03
2023-02-02T02:55:14.962Z,3.04
2023-02-02T02:56:26.828Z,3.05
2023-02-02T02:57:41.401Z,3.07
2023-02-02T02:59:10.803Z,3.08
2023-02-02T03:00:38.135Z,3.09
2023-02-02T03:02:00.266Z,3.12
2023-02-02T03:03:14.900Z,3.14
2023-02-02T03:04:33.711Z,3.15
2023-02-02T03:06:25.497Z,3.17
2023-02-02T03:07:53.498Z,3.18
2023-02-02T03:09:19.675Z,3.19
2023-02-02T03:10:28.175Z,3.21
2023-02-02T03:11:31.346Z,3.21
2023-02-02T03:12:34.499Z,3.22
2023-02-02T03:13:38.442Z,3.23
2023-02-02T03:14:41.424Z,3.23
2023-02-02T03:15:45.567Z,3.24
2023-02-02T03:16:51.743Z,3.25
2023-02-02T03:17:54.953Z,3.26
2023-02-02T03:18:58.030Z,3.28
2023-02-02T03:20:00.892Z,3.28
2023-02-02T03:21:04.034Z,3.29
2023-02-02T03:22:07.135Z,3.30
2023-02-02T03:23:10.031Z,3.30
2023-02-02T03:24:12.963Z,3.31
2023-02-02T03:25:16.596Z,3.31
2023-02-02T03:26:20.202Z,3.32
2023-02-02T03:27:23.127Z,3.33
2023-02-02T03:28:27.152Z,3.34
2023-02-02T03:29:30.127Z,3.34
2023-02-02T03:30:34.458Z,3.35
2023-02-02T03:31:37.740Z,3.35
2023-02-02T03:32:40.969Z,3.36
2023-02-02T03:33:44.920Z,3.36
2023-02-02T03:34:47.781Z,3.37
2023-02-02T03:35:50.749Z,3.38
2023-02-02T03:36:53.602Z,3.38
2023-02-02T03:37:56.553Z,3.39
2023-02-02T03:38:59.412Z,3.39
2023-02-02T03:40:02.303Z,3.41
2023-02-02T03:41:06.286Z,3.42
2023-02-02T03:42:09.258Z,3.42
2023-02-02T03:43:12.215Z,3.43
2023-02-02T03:44:15.656Z,3.43
2023-02-02T03:45:18.574Z,3.43
2023-02-02T03:46:22.114Z,3.44
2023-02-02T03:47:28.709Z,3.44
2023-02-02T03:48:35.062Z,3.44
2023-02-02T03:49:37.936Z,3.45
2023-02-02T03:50:40.822Z,3.45
2023-02-02T03:51:44.511Z,3.45
2023-02-02T03:52:47.389Z,3.45
2023-02-02T03:53:50.380Z,3.45
2023-02-02T03:54:53.400Z,3.46
2023-02-02T03:55:56.273Z,3.46
2023-02-02T03:56:59.144Z,3.46
2023-02-02T03:58:02.038Z,3.46
2023-02-02T03:59:04.998Z,3.47
2023-02-02T04:00:08.801Z,3.47
2023-02-02T04:01:15.788Z,3.47
2023-02-02T04:02:18.712Z,3.47
2023-02-02T04:03:21.810Z,3.46
2023-02-02T04:04:25.274Z,3.47
2023-02-02T04:05:28.306Z,3.47
2023-02-02T04:06:31.391Z,3.48
2023-02-02T04:07:34.327Z,3.49
2023-02-02T04:08:37.315Z,3.49
2023-02-02T04:09:40.267Z,3.49
2023-02-02T04:10:43.681Z,3.50
2023-02-02T04:11:46.548Z,3.51
2023-02-02T04:12:49.600Z,3.50
2023-02-02T04:13:52.560Z,3.52
2023-02-02T04:14:55.660Z,3.52
2023-02-02T04:16:00.435Z,3.52
2023-02-02T04:17:03.382Z,3.53
2023-02-02T04:18:06.604Z,3.54
2023-02-02T04:19:09.776Z,3.53
2023-02-02T04:20:12.711Z,3.53
2023-02-02T04:21:15.684Z,3.53
2023-02-02T04:22:18.571Z,3.54
2023-02-02T04:23:21.500Z,3.53
2023-02-02T04:24:24.386Z,3.54
2023-02-02T04:25:27.463Z,3.54
2023-02-02T04:26:30.666Z,3.54
2023-02-02T04:27:34.598Z,3.53
2023-02-02T04:28:37.509Z,3.53
2023-02-02T04:29:40.491Z,3.53
2023-02-02T04:30:43.458Z,3.53
2023-02-02T04:31:46.378Z,3.53
2023-02-02T04:32:51.232Z,3.52
2023-02-02T04:33:54.114Z,3.52
2023-02-02T04:34:56.971Z,3.53
2023-02-02T04:35:59.881Z,3.54
2023-02-02T04:37:02.801Z,3.54
2023-02-02T04:38:05.723Z,3.54
2023-02-02T04:39:11.763Z,3.54
2023-02-02T04:40:14.885Z,3.54
2023-02-02T04:41:19.056Z,3.54
2023-02-02T04:42:21.945Z,3.55
2023-02-02T04:43:25.458Z,3.55
2023-02-02T04:44:28.789Z,3.54
2023-02-02T04:45:31.725Z,3.54
2023-02-02T04:46:34.658Z,3.54
2023-02-02T04:47:37.565Z,3.54
2023-02-02T04:48:42.124Z,3.54
2023-02-02T04:49:45.109Z,3.54
2023-02-02T04:50:48.142Z,3.54
2023-02-02T04:51:51.093Z,3.55
2023-02-02T04:52:54.092Z,3.55
2023-02-02T04:53:56.979Z,3.55
2023-02-02T04:54:59.861Z,3.55
2023-02-02T04:56:13.105Z,3.55
2023-02-02T04:57:15.976Z,3.54
2023-02-02T04:58:19.699Z,3.54
2023-02-02T04:59:22.625Z,3.54
2023-02-02T05:00:25.648Z,3.54
2023-02-02T05:01:30.524Z,3.53
2023-02-02T05:02:36.790Z,3.54
2023-02-02T05:03:39.765Z,3.54
2023-02-02T05:04:42.707Z,3.54
2023-02-02T05:05:45.556Z,3.55
2023-02-02T05:06:48.445Z,3.54
2023-02-02T05:07:51.309Z,3.55
2023-02-02T05:08:54.265Z,3.54
2023-02-02T05:09:57.196Z,3.55
2023-02-02T05:11:00.112Z,3.55
2023-02-02T05:12:03.142Z,3.55
2023-02-02T05:13:06.018Z,3.56
2023-02-02T05:14:08.949Z,3.56
2023-02-02T05:15:11.811Z,3.56
2023-02-02T05:16:15.459Z,3.55
2023-02-02T05:17:18.460Z,3.55
2023-02-02T05:18:22.232Z,3.56
2023-02-02T05:19:25.160Z,3.56
2023-02-02T05:20:28.060Z,3.56
2023-02-02T05:21:30.922Z,3.56
2023-02-02T05:22:35.276Z,3.56
2023-02-02T05:23:38.177Z,3.57
2023-02-02T05:24:41.573Z,3.57
2023-02-02T05:25:44.481Z,3.58
2023-02-02T05:26:47.521Z,3.57
2023-02-02T05:27:50.485Z,3.57
2023-02-02T05:28:53.864Z,3.57
2023-02-02T05:29:56.809Z,3.57
2023-02-02T05:30:59.700Z,3.59
2023-02-02T05:32:03.217Z,3.59
2023-02-02T05:33:06.149Z,3.59
2023-02-02T05:34:11.637Z,3.59
2023-02-02T05:35:14.713Z,3.59
2023-02-02T05:36:17.872Z,3.61
2023-02-02T05:37:20.752Z,3.61
2023-02-02T05:38:23.645Z,3.62
2023-02-02T05:39:26.519Z,3.62
2023-02-02T05:40:29.744Z,3.62
2023-02-02T05:41:32.808Z,3.61
2023-02-02T05:42:35.777Z,3.62
2023-02-02T05:43:38.688Z,3.62
2023-02-02T05:44:41.549Z,3.63
2023-02-02T05:45:44.418Z,3.63
2023-02-02T05:46:47.335Z,3.64
2023-02-02T05:47:54.893Z,3.64
2023-02-02T05:49:00.392Z,3.64
2023-02-02T05:50:03.357Z,3.64
2023-02-02T05:51:21.818Z,3.64
2023-02-02T05:52:25.926Z,3.65
2023-02-02T05:53:31.174Z,3.64
2023-02-02T05:54:34.485Z,3.63
2023-02-02T05:55:37.402Z,3.64
2023-02-02T05:56:40.539Z,3.64
2023-02-02T05:57:43.431Z,3.63
2023-02-02T05:58:48.232Z,3.63
2023-02-02T05:59:51.043Z,3.64
2023-02-02T06:00:56.472Z,3.64
2023-02-02T06:01:59.726Z,3.64
2023-02-02T06:03:02.674Z,3.65
2023-02-02T06:04:05.764Z,3.65
2023-02-02T06:05:09.011Z,3.66
2023-02-02T06:06:13.407Z,3.67
2023-02-02T06:07:32.900Z,3.68
2023-02-02T06:08:36.340Z,3.68
2023-02-02T06:09:40.045Z,3.68
2023-02-02T06:10:42.990Z,3.68
2023-02-02T06:11:46.512Z,3.68
2023-02-02T06:12:49.390Z,3.68
2023-02-02T06:13:52.333Z,3.68
2023-02-02T06:14:55.279Z,3.68
2023-02-02T06:15:58.182Z,3.68
2023-02-02T06:17:01.170Z,3.68
2023-02-02T06:18:06.807Z,3.68
2023-02-02T06:19:09.862Z,3.68
2023-02-02T06:20:13.148Z,3.68
2023-02-02T06:21:16.183Z,3.69
2023-02-02T06:22:19.135Z,3.69
2023-02-02T06:23:22.059Z,3.70
2023-02-02T06:24:25.150Z,3.70
2023-02-02T06:25:28.567Z,3.70
2023-02-02T06:26:31.608Z,3.71
2023-02-02T06:27:34.548Z,3.72
2023-02-02T06:28:37.415Z,3.72
2023-02-02T06:29:40.373Z,3.73
2023-02-02T06:30:44.310Z,3.73
2023-02-02T06:31:48.040Z,3.73
2023-02-02T06:32:51.324Z,3.74
2023-02-02T06:33:57.658Z,3.75
2023-02-02T06:35:00.514Z,3.75
2023-02-02T06:36:06.207Z,3.76
2023-02-02T06:37:09.567Z,3.76
2023-02-02T06:38:12.503Z,3.76
2023-02-02T06:39:15.391Z,3.76
2023-02-02T06:40:18.418Z,3.75
2023-02-02T06:41:21.510Z,3.74
2023-02-02T06:42:24.363Z,3.74
2023-02-02T06:43:27.424Z,3.73
2023-02-02T06:44:30.568Z,3.73
2023-02-02T06:45:33.558Z,3.72
2023-02-02T06:46:36.486Z,3.71
2023-02-02T06:47:39.398Z,3.72
2023-02-02T06:48:43.164Z,3.71
2023-02-02T06:49:46.007Z,3.71
2023-02-02T06:50:48.853Z,3.70
2023-02-02T06:51:51.716Z,3.70
2023-02-02T06:52:54.808Z,3.70
2023-02-02T06:53:59.495Z,3.70
2023-02-02T06:55:02.683Z,3.70
2023-02-02T06:56:07.623Z,3.70
2023-02-02T06:57:10.601Z,3.70
2023-02-02T06:58:13.492Z,3.69
2023-02-02T06:59:16.407Z,3.69
2023-02-02T07:00:20.659Z,3.69
2023-02-02T07:01:23.737Z,3.68
2023-02-02T07:02:26.702Z,3.67
2023-02-02T07:03:30.168Z,3.67
2023-02-02T07:04:33.552Z,3.67
2023-02-02T07:05:36.458Z,3.66
2023-02-02T07:06:40.003Z,3.66
2023-02-02T07:07:42.838Z,3.67
2023-02-02T07:08:56.042Z,3.66
2023-02-02T07:10:06.525Z,3.66
2023-02-02T07:11:15.391Z,3.65
2023-02-02T07:12:19.452Z,3.66
2023-02-02T07:13:23.303Z,3.65
2023-02-02T07:14:27.098Z,3.65
2023-02-02T07:15:29.976Z,3.66
2023-02-02T07:16:33.030Z,3.66
2023-02-02T07:17:35.917Z,3.66
2023-02-02T07:18:39.705Z,3.66
2023-02-02T07:19:42.561Z,3.66
2023-02-02T07:20:45.550Z,3.66
2023-02-02T07:21:48.500Z,3.66
2023-02-02T07:22:51.454Z,3.66
2023-02-02T07:23:54.348Z,3.65
2023-02-02T07:24:57.261Z,3.64
2023-02-02T07:26:08.445Z,3.62
2023-02-02T07:27:11.481Z,3.62
2023-02-02T07:28:14.404Z,3.61
2023-02-02T07:29:17.318Z,3.61
2023-02-02T07:30:21.357Z,3.60
2023-02-02T07:31:26.682Z,3.59
2023-02-02T07:32:29.600Z,3.60
2023-02-02T07:33:32.473Z,3.59
2023-02-02T07:34:38.831Z,3.58
2023-02-02T07:35:41.719Z,3.58
2023-02-02T07:36:44.598Z,3.58
2023-02-02T07:37:53.622Z,3.58
2023-02-02T07:38:57.803Z,3.58
2023-02-02T07:40:00.672Z,3.58
2023-02-02T07:41:04.411Z,3.59
2023-02-02T07:42:08.668Z,3.59
2023-02-02T07:43:11.910Z,3.59
2023-02-02T07:44:15.835Z,3.59
2023-02-02T07:45:27.667Z,3.58
2023-02-02T07:46:31.402Z,3.57
2023-02-02T07:47:34.327Z,3.57
2023-02-02T07:48:37.355Z,3.56
2023-02-02T07:49:40.260Z,3.56
2023-02-02T07:50:43.551Z,3.56
2023-02-02T07:51:49.198Z,3.55
2023-02-02T07:52:52.716Z,3.53
2023-02-02T07:53:58.707Z,3.52
2023-02-02T07:55:13.886Z,3.52
2023-02-02T07:56:19.375Z,3.51
2023-02-02T07:57:22.215Z,3.50
2023-02-02T07:58:25.086Z,3.49
2023-02-02T07:59:28.542Z,3.48
2023-02-02T08:00:32.144Z,3.46
2023-02-02T08:01:35.143Z,3.45
2023-02-02T08:02:38.059Z,3.42
2023-02-02T08:03:42.986Z,3.39
2023-02-02T08:04:47.460Z,3.37
2023-02-02T08:05:51.227Z,3.35
2023-02-02T08:06:54.319Z,3.34
2023-02-02T08:07:57.380Z,3.33
2023-02-02T08:09:01.502Z,3.33
2023-02-02T08:10:04.735Z,3.33
2023-02-02T08:11:12.493Z,3.32
2023-02-02T08:12:16.166Z,3.31
2023-02-02T08:13:19.353Z,3.29
2023-02-02T08:14:22.205Z,3.26
2023-02-02T08:15:25.583Z,3.25
2023-02-02T08:16:30.742Z,3.25
2023-02-02T08:17:33.646Z,3.24
2023-02-02T08:18:37.387Z,3.24
2023-02-02T08:19:40.310Z,3.23
2023-02-02T08:20:43.422Z,3.23
2023-02-02T08:21:46.487Z,3.22
2023-02-02T08:22:49.399Z,3.22
2023-02-02T08:23:53.340Z,3.21
2023-02-02T08:24:56.415Z,3.20
2023-02-02T08:26:11.335Z,3.20
2023-02-02T08:27:16.341Z,3.20
2023-02-02T08:28:19.321Z,3.20
2023-02-02T08:29:22.291Z,3.19
2023-02-02T08:30:25.486Z,3.19
2023-02-02T08:31:37.808Z,3.19
2023-02-02T08:32:40.774Z,3.19
2023-02-02T08:33:43.687Z,3.18
2023-02-02T08:34:48.962Z,3.18
2023-02-02T08:35:51.847Z,3.19
2023-02-02T08:36:54.819Z,3.20
2023-02-02T08:37:57.686Z,3.20
2023-02-02T08:39:03.316Z,3.21
2023-02-02T08:40:07.449Z,3.20
2023-02-02T08:41:13.341Z,3.20
2023-02-02T08:42:16.198Z,3.21
2023-02-02T08:43:19.659Z,3.21
2023-02-02T08:44:23.531Z,3.21
2023-02-02T08:46:01.393Z,3.22
2023-02-02T08:46:51.084Z,3.22
2023-02-02T08:48:10.362Z,3.21
2023-02-02T08:49:15.566Z,3.21
2023-02-02T08:50:18.529Z,3.21
2023-02-02T08:51:21.980Z,3.20
2023-02-02T08:52:25.905Z,3.21
2023-02-02T08:53:29.756Z,3.21
2023-02-02T08:54:33.075Z,3.22
2023-02-02T08:55:36.012Z,3.23
2023-02-02T08:56:38.888Z,3.23
2023-02-02T08:57:41.828Z,3.23
2023-02-02T08:58:55.439Z,3.24
2023-02-02T08:59:59.362Z,3.26
2023-02-02T09:01:23.327Z,3.27
2023-02-02T09:02:26.605Z,3.27
2023-02-02T09:03:29.495Z,3.28
2023-02-02T09:04:32.397Z,3.29
2023-02-02T09:05:36.013Z,3.30
2023-02-02T09:06:40.627Z,3.31
2023-02-02T09:07:43.527Z,3.32
2023-02-02T09:08:47.185Z,3.33
2023-02-02T09:09:52.747Z,3.34
2023-02-02T09:10:55.631Z,3.35
2023-02-02T09:11:58.501Z,3.37
2023-02-02T09:13:01.605Z,3.37
2023-02-02T09:14:06.844Z,3.38
2023-02-02T09:15:10.548Z,3.38
2023-02-02T09:16:15.582Z,3.38
2023-02-02T09:17:18.649Z,3.41
2023-02-02T09:18:21.517Z,3.43
2023-02-02T09:19:24.330Z,3.44
2023-02-02T09:20:27.294Z,3.45
2023-02-02T09:21:30.270Z,3.45
2023-02-02T09:22:33.476Z,3.45
2023-02-02T09:23:52.204Z,3.45
2023-02-02T09:24:55.270Z,3.45
2023-02-02T09:26:08.493Z,3.45
2023-02-02T09:27:11.477Z,3.48
2023-02-02T09:28:14.405Z,3.49
2023-02-02T09:29:20.795Z,3.51
2023-02-02T09:30:23.693Z,3.52
2023-02-02T09:31:27.155Z,3.51
2023-02-02T09:32:30.237Z,3.51
2023-02-02T09:33:33.053Z,3.49
2023-02-02T09:34:36.476Z,3.49
2023-02-02T09:35:39.441Z,3.48
2023-02-02T09:36:43.503Z,3.48
2023-02-02T09:37:46.460Z,3.46
2023-02-02T09:38:51.137Z,3.46
2023-02-02T09:39:54.069Z,3.47
2023-02-02T09:40:57.048Z,3.47
2023-02-02T09:42:12.716Z,3.46
2023-02-02T09:43:15.593Z,3.46
2023-02-02T09:44:57.436Z,3.47
2023-02-02T09:46:19.702Z,3.48
2023-02-02T09:47:47.602Z,3.49
2023-02-02T09:49:05.245Z,3.52
2023-02-02T09:50:25.188Z,3.51
2023-02-02T09:51:36.421Z,3.51
2023-02-02T09:52:46.437Z,3.51
2023-02-02T09:54:04.790Z,3.47
2023-02-02T09:55:23.780Z,3.51
2023-02-02T09:56:38.803Z,3.52
2023-02-02T09:57:47.599Z,3.52
2023-02-02T09:59:10.141Z,3.51
2023-02-02T10:00:44.171Z,3.51
2023-02-02T10:01:50.713Z,3.50
2023-02-02T10:03:00.757Z,3.50
2023-02-02T10:04:14.076Z,3.51
2023-02-02T10:05:27.585Z,3.52
2023-02-02T10:06:51.163Z,3.53
2023-02-02T10:08:00.248Z,3.55
2023-02-02T10:09:26.532Z,3.54
2023-02-02T10:10:40.473Z,3.58
2023-02-02T10:12:05.557Z,3.58
2023-02-02T10:13:17.086Z,3.58
2023-02-02T10:14:40.746Z,3.58
2023-02-02T10:16:17.476Z,3.59
2023-02-02T10:17:46.934Z,3.59
2023-02-02T10:19:06.003Z,3.59
2023-02-02T10:20:50.863Z,3.59
2023-02-02T10:22:19.581Z,3.60
2023-02-02T10:23:29.372Z,3.61
2023-02-02T10:24:32.637Z,3.60
2023-02-02T10:25:35.580Z,3.59
2023-02-02T10:26:43.858Z,3.61
2023-02-02T10:28:01.231Z,3.68
2023-02-02T10:29:13.932Z,3.71
2023-02-02T10:30:22.798Z,3.69
2023-02-02T10:31:42.310Z,3.71
2023-02-02T10:33:01.293Z,3.78
2023-02-02T10:34:12.290Z,3.78
2023-02-02T10:36:16.581Z,3.83
2023-02-02T10:37:42.374Z,3.88
2023-02-02T10:38:58.226Z,3.97
2023-02-02T10:40:31.644Z,3.98
2023-02-02T10:41:43.559Z,4.04
2023-02-02T10:43:39.759Z,4.06
2023-02-02T10:44:57.843Z,4.09
2023-02-02T10:46:03.848Z,4.11
2023-02-02T10:47:13.130Z,4.12
2023-02-02T10:48:32.844Z,4.13
2023-02-02T10:49:39.866Z,4.15
2023-02-02T10:50:54.354Z,4.16
2023-02-02T10:52:12.059Z,4.16
2023-02-02T10:53:16.629Z,4.15
2023-02-02T10:54:55.960Z,4.16
2023-02-02T10:57:47.116Z,4.11
2023-02-02T10:59:21.997Z,4.15
2023-02-02T11:00:58.866Z,4.14
2023-02-02T11:02:18.983Z,4.13
2023-02-02T11:03:27.528Z,4.13
2023-02-02T11:04:49.845Z,4.12
2023-02-02T11:06:11.955Z,4.13
2023-02-02T11:07:20.522Z,4.11
2023-02-02T11:08:35.469Z,4.10
2023-02-02T11:09:43.005Z,4.10
2023-02-02T11:10:48.490Z,4.10
2023-02-02T11:11:55.807Z,4.10
2023-02-02T11:13:02.092Z,4.11
2023-02-02T11:14:08.150Z,4.10
2023-02-02T11:15:27.714Z,4.11
2023-02-02T11:16:42.595Z,4.11
2023-02-02T11:17:46.353Z,4.12
2023-02-02T11:18:49.788Z,4.13
2023-02-02T11:19:56.231Z,4.13
2023-02-02T11:20:59.293Z,4.14
2023-02-02T11:22:04.566Z,4.15
2023-02-02T11:23:07.696Z,4.15
2023-02-02T11:24:30.816Z,4.13
2023-02-02T11:25:38.222Z,4.11
2023-02-02T11:26:56.020Z,4.10
2023-02-02T11:28:10.386Z,4.07
2023-02-02T11:29:37.501Z,4.11
2023-02-02T11:30:40.707Z,4.12
2023-02-02T11:31:44.887Z,4.13
2023-02-02T11:32:49.721Z,4.15
2023-02-02T11:33:52.725Z,4.16
2023-02-02T11:35:14.179Z,4.18
2023-02-02T11:36:22.048Z,4.19
2023-02-02T11:37:25.079Z,4.20
2023-02-02T11:38:29.227Z,4.21
2023-02-02T11:39:32.092Z,4.20
2023-02-02T11:40:44.414Z,4.18
2023-02-02T11:41:47.557Z,4.22
2023-02-02T11:42:52.176Z,4.21
2023-02-02T11:43:57.138Z,4.20
2023-02-02T11:45:00.282Z,4.24
2023-02-02T11:46:06.973Z,4.23
2023-02-02T11:47:19.682Z,4.24
2023-02-02T11:48:28.332Z,4.23
2023-02-02T11:49:37.612Z,4.23
2023-02-02T11:50:47.608Z,4.22
2023-02-02T11:52:03.929Z,4.21
2023-02-02T11:53:07.017Z,4.22
2023-02-02T11:54:21.740Z,4.22
2023-02-02T11:55:31.210Z,4.22
2023-02-02T11:56:37.451Z,4.21
2023-02-02T11:57:40.448Z,4.23
2023-02-02T11:58:45.642Z,4.24
2023-02-02T11:59:51.513Z,4.24
2023-02-02T12:00:58.853Z,4.25
2023-02-02T12:02:20.346Z,4.23
2023-02-02T12:03:47.892Z,4.24
2023-02-02T12:04:53.422Z,4.25
2023-02-02T12:05:57.041Z,4.25
2023-02-02T12:06:59.879Z,4.26
2023-02-02T12:08:02.956Z,4.26
2023-02-02T12:09:21.609Z,4.26
2023-02-02T12:10:33.027Z,4.27
2023-02-02T12:11:55.736Z,4.27
2023-02-02T12:13:16.811Z,4.27
2023-02-02T12:14:25.385Z,4.26
2023-02-02T12:16:08.950Z,4.24
2023-02-02T12:17:31.868Z,4.21
2023-02-02T12:18:48.840Z,4.17
2023-02-02T12:20:08.410Z,4.14
2023-02-02T12:21:21.093Z,4.12
2023-02-02T12:22:44.844Z,4.11
2023-02-02T12:24:11.038Z,4.09
2023-02-02T12:25:51.947Z,4.08
2023-02-02T12:27:34.135Z,4.07
2023-02-02T12:29:05.612Z,4.05
2023-02-02T12:30:28.217Z,4.04
2023-02-02T12:31:37.384Z,4.04
2023-02-02T12:32:46.885Z,4.03
2023-02-02T12:34:15.913Z,4.04
2023-02-02T12:35:57.946Z,4.04
2023-02-02T12:37:42.706Z,4.04
2023-02-02T12:39:11.245Z,4.03
2023-02-02T12:41:10.017Z,4.05
2023-02-02T12:42:36.697Z,4.06
2023-02-02T12:43:43.356Z,4.07
2023-02-02T12:45:10.929Z,4.05
2023-02-02T12:46:26.950Z,4.04
2023-02-02T12:47:41.680Z,4.03
2023-02-02T12:48:53.264Z,4.03
2023-02-02T12:50:14.941Z,4.03
2023-02-02T12:51:29.824Z,4.03
2023-02-02T12:53:12.031Z,4.02
2023-02-02T12:55:04.099Z,4.01
2023-02-02T12:56:21.023Z,4.02
2023-02-02T12:57:40.805Z,4.00
2023-02-02T12:59:23.921Z,4.00
2023-02-02T13:00:55.124Z,4.00
2023-02-02T13:02:35.857Z,3.98
2023-02-02T13:04:07.974Z,3.96
2023-02-02T13:06:41.076Z,3.97
2023-02-02T13:07:52.830Z,3.95
2023-02-02T13:09:02.454Z,3.93
2023-02-02T13:10:37.983Z,3.89
2023-02-02T13:11:50.794Z,3.84
2023-02-02T13:12:58.073Z,3.86
2023-02-02T13:14:10.122Z,3.84
2023-02-02T13:15:19.314Z,3.83
2023-02-02T13:16:23.510Z,3.81
2023-02-02T13:17:39.323Z,3.79
2023-02-02T13:18:52.054Z,3.81
2023-02-02T13:20:02.287Z,3.81
2023-02-02T13:21:08.819Z,3.81
2023-02-02T13:22:30.055Z,3.79
2023-02-02T13:23:40.951Z,3.77
2023-02-02T13:24:48.063Z,3.75
2023-02-02T13:25:58.115Z,3.74
2023-02-02T13:27:06.160Z,3.75
2023-02-02T13:28:22.238Z,3.75
2023-02-02T13:30:16.290Z,3.77
2023-02-02T13:31:29.591Z,3.79
2023-02-02T13:32:43.929Z,3.79
2023-02-02T13:33:55.150Z,3.83
2023-02-02T13:35:31.568Z,3.84
2023-02-02T13:36:39.053Z,3.85
2023-02-02T13:38:02.200Z,3.86
2023-02-02T13:39:16.326Z,3.85
2023-02-02T13:40:38.692Z,3.86
2023-02-02T13:41:43.228Z,3.85
2023-02-02T13:42:55.929Z,3.85
2023-02-02T13:44:05.707Z,3.85
2023-02-02T13:45:20.355Z,3.86
2023-02-02T13:46:47.520Z,3.86
2023-02-02T13:48:09.176Z,3.88
2023-02-02T13:49:17.378Z,3.91
2023-02-02T13:50:30.484Z,3.94
2023-02-02T13:52:09.367Z,3.96
2023-02-02T13:53:53.033Z,4.00
2023-02-02T13:55:27.955Z,4.04
2023-02-02T13:56:37.441Z,4.05
2023-02-02T13:57:59.484Z,4.06
2023-02-02T13:59:47.228Z,4.07
2023-02-02T14:01:13.227Z,4.07
2023-02-02T14:02:51.621Z,4.08
2023-02-02T14:03:57.877Z,4.08
2023-02-02T14:05:04.461Z,4.07
2023-02-02T14:06:17.564Z,4.07
2023-02-02T14:07:35.536Z,4.06
2023-02-02T14:08:46.851Z,4.06
2023-02-02T14:09:50.087Z,4.07
2023-02-02T14:10:53.239Z,4.07
2023-02-02T14:12:03.389Z,4.08
2023-02-02T14:13:36.552Z,4.09
2023-02-02T14:14:49.491Z,4.11
2023-02-02T14:15:55.889Z,4.10
2023-02-02T14:17:07.247Z,4.13
2023-02-02T14:18:13.229Z,4.20
2023-02-02T14:19:35.872Z,4.23
2023-02-02T14:20:43.701Z,4.27
2023-02-02T14:21:49.649Z,4.29
2023-02-02T14:23:05.524Z,4.29
2023-02-02T14:24:26.613Z,4.28
2023-02-02T14:25:29.540Z,4.26
2023-02-02T14:26:50.004Z,4.24
2023-02-02T14:28:01.246Z,4.23
2023-02-02T14:29:24.074Z,4.22
2023-02-02T14:30:30.192Z,4.20
2023-02-02T14:31:52.404Z,4.19
2023-02-02T14:33:24.472Z,4.18
2023-02-02T14:34:36.464Z,4.15
2023-02-02T14:35:42.046Z,4.11
2023-02-02T14:37:13.596Z,4.09
2023-02-02T14:38:49.651Z,4.05
2023-02-02T14:40:10.412Z,4.01
2023-02-02T14:41:39.094Z,3.96
2023-02-02T14:43:25.151Z,3.94
2023-02-02T14:44:28.720Z,3.90
2023-02-02T14:45:34.289Z,3.86
2023-02-02T14:46:48.262Z,3.84
2023-02-02T14:49:41.401Z,3.73
2023-02-02T14:50:52.880Z,3.72
2023-02-02T14:52:02.197Z,3.71
2023-02-02T14:53:19.753Z,3.68
2023-02-02T14:54:33.563Z,3.65
2023-02-02T14:55:51.527Z,3.65
2023-02-02T14:56:59.096Z,3.60
2023-02-02T14:58:06.035Z,3.60
2023-02-02T14:59:20.067Z,3.62
2023-02-02T15:00:28.178Z,3.61
2023-02-02T15:01:37.367Z,3.61
2023-02-02T15:02:40.204Z,3.60
2023-02-02T15:04:24.366Z,3.59
2023-02-02T15:05:38.907Z,3.58
2023-02-02T15:06:43.276Z,3.57
2023-02-02T15:07:54.552Z,3.56
2023-02-02T15:09:29.206Z,3.55
2023-02-02T15:11:00.484Z,3.53
2023-02-02T15:12:03.510Z,3.52
2023-02-02T15:13:16.071Z,3.51
2023-02-02T15:14:21.778Z,3.51
2023-02-02T15:15:30.192Z,3.47
2023-02-02T15:16:37.655Z,3.47
2023-02-02T15:17:40.798Z,3.48
2023-02-02T15:18:47.926Z,3.48
2023-02-02T15:20:20.846Z,3.47
2023-02-02T15:21:24.598Z,3.45
2023-02-02T15:22:51.613Z,3.44
2023-02-02T15:23:55.857Z,3.41
2023-02-02T15:25:04.925Z,3.39
2023-02-02T15:26:13.600Z,3.37
2023-02-02T15:27:19.545Z,3.34